Time;durP1;ratioP1;P1;durP2;ratioP2;P2;SDS_P1;SDS_P2;PMS_P1;PMS_P2;Temp;Humidity;BMP_temperature;BMP_pressure;BME280_temperature;BME280_humidity;BME280_pressure;Samples;Min_cycle;Max_cycle;Signal;HPM_P1;HPM_P2
2020/12/02 00:00:51;;;;;;;14.10;4.40;;;;;;;3.40;93.51;101305.56;5086846;28;20087;-74
2020/12/02 00:03:38;;;;;;;13.77;4.18;;;;;;;3.38;93.51;101296.75;5085793;28;20369;-74
2020/12/02 00:06:04;;;;;;;12.75;3.80;;;;;;;3.38;93.42;101296.75;5049846;28;20082;-74
2020/12/02 00:08:33;;;;;;;15.07;3.72;;;;;;;3.33;93.45;101287.25;5074276;28;20087;-74
2020/12/02 00:11:00;;;;;;;13.27;3.90;;;;;;;3.34;93.25;101290.84;5073640;28;20504;-74
2020/12/02 00:13:28;;;;;;;14.07;4.07;;;;;;;3.32;93.43;101296.56;5087527;28;20033;-74
2020/12/02 00:15:54;;;;;;;16.00;3.78;;;;;;;3.30;93.45;101295.94;5063519;28;20091;-75
2020/12/02 00:18:19;;;;;;;15.13;4.10;;;;;;;3.29;93.42;101290.69;5070692;28;20040;-75
2020/12/02 00:20:45;;;;;;;10.57;3.70;;;;;;;3.28;93.25;101287.09;5058218;28;20032;-75
2020/12/02 00:23:11;;;;;;;16.27;3.92;;;;;;;3.27;93.39;101290.91;5058084;28;20499;-75
2020/12/02 00:25:36;;;;;;;10.00;3.60;;;;;;;3.26;93.46;101291.13;5075483;28;20032;-75
2020/12/02 00:28:03;;;;;;;10.68;3.80;;;;;;;3.23;93.53;101284.22;5079746;28;20056;-74
2020/12/02 00:30:29;;;;;;;14.73;3.60;;;;;;;3.23;93.32;101292.44;5074845;28;20408;-75
2020/12/02 00:32:54;;;;;;;16.23;3.75;;;;;;;3.20;93.36;101301.09;5054134;28;20047;-75
2020/12/02 00:35:21;;;;;;;19.02;4.38;;;;;;;3.18;93.47;101292.28;5050595;28;20040;-75
2020/12/02 00:37:47;;;;;;;16.58;3.40;;;;;;;3.18;93.58;101286.78;5077664;28;20036;-75
2020/12/02 00:40:14;;;;;;;12.90;3.70;;;;;;;3.17;93.75;101285.09;5059874;28;20453;-75
2020/12/02 00:42:40;;;;;;;13.70;3.60;;;;;;;3.14;93.59;101286.38;5065822;28;20035;-75
2020/12/02 00:45:06;;;;;;;15.32;4.00;;;;;;;3.14;93.61;101280.91;5080569;28;20107;-75
2020/12/02 00:47:31;;;;;;;12.80;3.83;;;;;;;3.13;93.63;101283.88;5077510;28;20028;-75
2020/12/02 00:49:57;;;;;;;13.95;3.80;;;;;;;3.11;93.83;101275.84;5057381;28;20040;-74
2020/12/02 00:52:24;;;;;;;12.45;3.45;;;;;;;3.09;93.94;101275.28;5041415;28;20024;-75
2020/12/02 00:54:49;;;;;;;12.88;3.20;;;;;;;3.10;94.01;101270.63;5074409;28;20044;-75
2020/12/02 00:57:19;;;;;;;13.00;3.60;;;;;;;3.09;93.89;101278.00;5078295;28;20024;-75
2020/12/02 00:59:45;;;;;;;10.18;3.05;;;;;;;3.08;94.06;101276.31;5072204;28;20121;-74
2020/12/02 01:02:32;;;;;;;16.25;4.28;;;;;;;3.08;93.98;101275.47;5065003;28;20065;-75
2020/12/02 01:04:58;;;;;;;13.35;4.22;;;;;;;3.08;94.23;101273.56;5067934;28;20123;-75
2020/12/02 01:07:24;;;;;;;11.88;3.60;;;;;;;3.06;94.01;101269.38;5051789;28;20496;-74
2020/12/02 01:09:50;;;;;;;14.75;4.00;;;;;;;3.07;94.18;101273.81;5058743;28;20036;-74
2020/12/02 01:12:16;;;;;;;13.20;3.13;;;;;;;3.07;94.02;101268.31;5080341;28;20024;-75
2020/12/02 01:14:42;;;;;;;13.35;3.67;;;;;;;3.08;94.18;101270.00;5077041;28;20096;-74
2020/12/02 01:17:07;;;;;;;12.48;3.53;;;;;;;3.08;94.05;101270.00;5047567;28;20028;-74
2020/12/02 01:19:34;;;;;;;15.75;3.45;;;;;;;3.06;94.19;101266.63;5067936;28;20103;-74
2020/12/02 01:22:14;;;;;;;11.93;3.45;;;;;;;3.06;94.17;101266.63;5085279;28;20066;-74
2020/12/02 01:24:44;;;;;;;9.40;3.25;;;;;;;3.08;94.12;101267.25;5082957;28;20093;-75
2020/12/02 01:27:28;;;;;;;15.85;3.75;;;;;;;3.07;94.22;101258.19;5080182;28;20412;-75
2020/12/02 01:29:54;;;;;;;11.45;3.25;;;;;;;3.06;93.95;101261.97;5075632;28;20040;-74
2020/12/02 01:32:19;;;;;;;10.32;2.80;;;;;;;3.08;94.10;101259.00;5073306;28;20037;-75
2020/12/02 01:34:49;;;;;;;9.50;3.20;;;;;;;3.09;94.09;101257.94;5069729;28;20163;-74
2020/12/02 01:37:31;;;;;;;17.42;4.13;;;;;;;3.08;93.92;101259.00;5049559;28;20107;-75
2020/12/02 01:40:02;;;;;;;13.85;3.60;;;;;;;3.09;93.93;101257.94;5080446;28;20035;-75
2020/12/02 01:42:28;;;;;;;14.77;3.60;;;;;;;3.07;94.11;101251.84;5079626;28;20028;-74
2020/12/02 01:44:54;;;;;;;17.42;3.78;;;;;;;3.05;94.49;101252.06;5042746;28;20491;-74
2020/12/02 01:47:24;;;;;;;15.40;3.30;;;;;;;3.05;94.45;101252.06;5082768;28;20028;-74
2020/12/02 01:50:02;;;;;;;17.75;3.45;;;;;;;3.04;94.41;101247.66;5081158;28;20519;-74
2020/12/02 01:52:43;;;;;;;13.55;3.28;;;;;;;3.06;94.50;101251.00;5048744;28;20041;-74
2020/12/02 01:55:11;;;;;;;12.00;3.30;;;;;;;3.04;94.75;101249.56;5067323;28;20031;-74
2020/12/02 01:57:36;;;;;;;15.13;3.50;;;;;;;3.04;nan;101252.31;5061278;28;20036;-74
2020/12/02 02:00:12;;;;;;;14.77;3.55;;;;;;;3.05;94.75;101246.56;5067505;28;20069;-75
2020/12/02 02:02:54;;;;;;;10.32;2.85;;;;;;;3.06;94.62;101244.66;5060532;28;20029;-74
2020/12/02 02:05:42;;;;;;;15.48;3.33;;;;;;;3.08;94.69;101243.38;5071205;28;20047;-75
2020/12/02 02:08:08;;;;;;;11.73;3.65;;;;;;;3.09;94.64;101235.97;5075111;28;20043;-74
2020/12/02 02:10:35;;;;;;;15.23;3.33;;;;;;;3.08;94.64;101237.88;5075693;28;20036;-74
2020/12/02 02:13:19;;;;;;;13.98;3.15;;;;;;;3.10;94.55;101230.28;5082197;28;20120;-74
2020/12/02 02:15:51;;;;;;;9.32;2.85;;;;;;;3.12;94.51;101238.25;5075892;28;20037;-75
2020/12/02 02:18:22;;;;;;;10.88;3.55;;;;;;;3.12;94.50;101238.25;5065809;28;20512;-74
2020/12/02 02:20:54;;;;;;;12.52;3.30;;;;;;;3.12;94.35;101232.78;5058179;28;20021;-74
2020/12/02 02:23:19;;;;;;;11.30;3.47;;;;;;;3.10;94.51;101224.78;5074317;28;20032;-74
2020/12/02 02:26:09;;;;;;;11.32;3.42;;;;;;;3.10;94.57;101241.25;5075452;28;20036;-74
2020/12/02 02:28:35;;;;;;;13.60;3.65;;;;;;;3.08;94.50;101242.53;5081560;28;20051;-74
2020/12/02 02:31:02;;;;;;;11.13;3.17;;;;;;;3.08;94.92;101248.03;5079385;28;20059;-75
2020/12/02 02:33:28;;;;;;;12.50;3.65;;;;;;;3.07;94.69;101254.59;5062713;28;20112;-74
2020/12/02 02:35:53;;;;;;;12.25;3.33;;;;;;;3.08;94.63;101248.03;5078904;28;20071;-74
2020/12/02 02:38:21;;;;;;;19.10;3.85;;;;;;;3.06;94.79;101247.41;5087987;28;20036;-74
2020/12/02 02:40:47;;;;;;;15.30;3.85;;;;;;;3.04;94.58;101241.34;5076404;28;20028;-75
2020/12/02 02:43:13;;;;;;;8.65;3.13;;;;;;;3.05;94.64;101240.25;5077983;28;20531;-75
2020/12/02 02:45:39;;;;;;;13.63;3.25;;;;;;;3.06;94.51;101244.66;5070015;28;20116;-75
2020/12/02 02:48:07;;;;;;;15.70;3.20;;;;;;;3.07;94.44;101240.88;5082219;28;20473;-75
2020/12/02 02:50:34;;;;;;;11.63;3.08;;;;;;;3.04;94.36;101228.44;5053469;28;20211;-74
2020/12/02 02:52:59;;;;;;;10.80;3.03;;;;;;;3.04;94.17;101227.63;5074281;28;20043;-75
2020/12/02 02:55:25;;;;;;;9.75;3.20;;;;;;;3.02;94.05;101227.81;5060166;28;20040;-75
2020/12/02 02:57:51;;;;;;;10.02;3.15;;;;;;;3.02;94.06;101221.50;5085046;28;20032;-74
2020/12/02 03:00:20;;;;;;;14.07;3.33;;;;;;;3.00;93.99;101218.13;5075382;28;20033;-74
2020/12/02 03:02:46;;;;;;;9.52;3.33;;;;;;;2.99;94.03;101210.97;5076646;28;20137;-75
2020/12/02 03:05:11;;;;;;;10.18;2.85;;;;;;;2.98;93.85;101223.88;5060282;28;20028;-75
2020/12/02 03:07:38;;;;;;;10.95;3.28;;;;;;;2.97;94.07;101218.59;5061364;28;20472;-75
2020/12/02 03:10:04;;;;;;;9.07;2.90;;;;;;;2.96;93.95;101222.41;5051637;28;20060;-74
2020/12/02 03:12:29;;;;;;;11.32;3.40;;;;;;;2.95;93.95;101220.72;5065958;28;20037;-75
2020/12/02 03:14:55;;;;;;;12.38;3.53;;;;;;;2.95;94.16;101217.97;5061676;28;20065;-74
2020/12/02 03:17:21;;;;;;;10.60;3.50;;;;;;;2.95;94.05;101207.00;5062878;28;20484;-74
2020/12/02 03:20:20;;;;;;;14.02;3.15;;;;;;;2.95;94.16;101198.75;5055649;28;20021;-74
2020/12/02 03:22:46;;;;;;;13.98;3.03;;;;;;;2.93;94.34;101204.50;5059170;28;20040;-75
2020/12/02 03:25:14;;;;;;;12.15;3.20;;;;;;;2.94;94.27;101202.59;5059462;28;20059;-75
2020/12/02 03:27:40;;;;;;;16.08;4.47;;;;;;;2.95;94.34;101201.50;5082547;28;20032;-74
2020/12/02 03:30:06;;;;;;;13.15;4.13;;;;;;;2.93;94.49;101190.78;5081312;28;20043;-74
2020/12/02 03:32:31;;;;;;;15.18;4.10;;;;;;;2.92;94.42;101197.31;5062597;28;20029;-74
2020/12/02 03:34:57;;;;;;;17.23;4.22;;;;;;;2.92;94.42;101194.56;5074611;28;20389;-74
2020/12/02 03:37:22;;;;;;;18.48;4.18;;;;;;;2.90;94.26;101192.06;5085840;28;20035;-74
2020/12/02 03:39:48;;;;;;;20.38;4.70;;;;;;;2.88;94.89;101199.69;5085165;28;20043;-74
2020/12/02 03:42:13;;;;;;;12.38;3.70;;;;;;;2.86;94.64;101199.06;5065334;28;20031;-74
2020/12/02 03:44:39;;;;;;;11.48;3.33;;;;;;;2.87;94.51;101194.41;5079704;28;20085;-74
2020/12/02 03:47:04;;;;;;;10.60;4.10;;;;;;;2.86;94.64;101196.31;5068251;28;20033;-74
2020/12/02 03:49:30;;;;;;;18.15;3.80;;;;;;;2.87;94.44;101199.88;5087847;28;20036;-75
2020/12/02 03:51:56;;;;;;;11.48;3.42;;;;;;;2.85;94.50;101189.16;5074108;28;20384;-74
2020/12/02 03:54:21;;;;;;;12.07;3.72;;;;;;;2.83;94.10;101191.28;5077343;28;20033;-74
2020/12/02 03:56:47;;;;;;;10.38;3.03;;;;;;;2.83;94.30;101196.78;5052011;28;20028;-74
2020/12/02 03:59:12;;;;;;;14.00;4.05;;;;;;;2.82;94.34;101188.78;5087975;28;20040;-75
2020/12/02 04:01:38;;;;;;;15.05;3.53;;;;;;;2.80;94.17;101191.75;5080859;28;20020;-74
2020/12/02 04:04:04;;;;;;;9.10;2.90;;;;;;;2.78;94.04;101191.13;5078818;28;20083;-74
2020/12/02 04:06:29;;;;;;;9.52;3.10;;;;;;;2.76;94.20;101181.44;5069674;28;20120;-74
2020/12/02 04:08:55;;;;;;;11.68;3.25;;;;;;;2.74;94.05;101186.31;5075101;28;20021;-74
2020/12/02 04:11:20;;;;;;;12.80;3.38;;;;;;;2.73;94.14;101190.97;5071721;28;20476;-74
2020/12/02 04:13:46;;;;;;;13.65;3.90;;;;;;;2.69;94.30;101173.28;5072882;28;20025;-74
2020/12/02 04:16:12;;;;;;;15.35;3.80;;;;;;;2.68;94.21;101177.09;5082363;28;20037;-74
2020/12/02 04:18:37;;;;;;;10.40;3.72;;;;;;;2.66;93.97;101173.72;5077434;28;20044;-74
2020/12/02 04:21:03;;;;;;;13.13;3.50;;;;;;;2.64;94.23;101164.88;5056974;28;20028;-74
2020/12/02 04:23:28;;;;;;;14.80;3.53;;;;;;;2.63;94.13;101169.53;5076475;28;20484;-74
2020/12/02 04:25:54;;;;;;;19.45;4.72;;;;;;;2.61;93.97;101159.84;5082745;28;20040;-74
2020/12/02 04:28:19;;;;;;;14.15;3.65;;;;;;;2.59;94.21;101161.97;5083017;28;20071;-75
2020/12/02 04:30:46;;;;;;;12.65;3.65;;;;;;;2.58;94.24;101160.31;5064395;28;20033;-74
2020/12/02 04:33:11;;;;;;;12.95;3.30;;;;;;;2.58;94.12;101154.81;5074797;28;20029;-74
2020/12/02 04:35:37;;;;;;;10.95;3.42;;;;;;;2.54;94.09;101151.69;5075514;28;20062;-74
2020/12/02 04:38:03;;;;;;;13.40;3.85;;;;;;;2.54;94.14;101148.13;5084313;28;20051;-74
2020/12/02 04:40:31;;;;;;;15.50;3.60;;;;;;;2.52;94.23;101144.75;5081205;28;20042;-74
2020/12/02 04:43:08;;;;;;;15.60;3.83;;;;;;;2.52;94.11;101144.75;5054639;28;20091;-75
2020/12/02 04:45:34;;;;;;;9.63;3.28;;;;;;;2.49;94.22;101139.72;5067718;28;20039;-74
2020/12/02 04:48:01;;;;;;;13.63;3.35;;;;;;;2.47;94.22;101137.19;5061010;28;20111;-74
2020/12/02 04:50:28;;;;;;;9.50;2.97;;;;;;;2.46;94.10;101135.53;5069634;28;20037;-74
2020/12/02 04:53:13;;;;;;;10.00;3.40;;;;;;;2.43;94.11;101138.72;5077098;28;20036;-74
2020/12/02 04:55:43;;;;;;;8.00;3.03;;;;;;;2.42;94.03;101145.25;5079520;28;20032;-74
2020/12/02 04:58:23;;;;;;;14.13;3.20;;;;;;;2.40;93.93;101136.44;5083069;28;20396;-74
2020/12/02 05:00:49;;;;;;;10.18;2.90;;;;;;;2.37;94.11;101134.97;5086412;28;20107;-74
2020/12/02 05:03:14;;;;;;;10.95;3.40;;;;;;;2.36;93.87;101135.19;5065713;28;20032;-74
2020/12/02 05:05:40;;;;;;;13.40;3.08;;;;;;;2.34;93.85;101124.47;5073044;28;20038;-74
2020/12/02 05:08:27;;;;;;;10.30;2.90;;;;;;;2.31;93.94;101122.16;5048932;28;20024;-74
2020/12/02 05:10:53;;;;;;;8.38;3.35;;;;;;;2.29;93.87;101113.34;5049352;28;20155;-74
2020/12/02 05:13:19;;;;;;;12.40;3.05;;;;;;;2.28;93.93;101116.28;5062942;28;20594;-74
2020/12/02 05:15:44;;;;;;;7.53;2.83;;;;;;;2.24;93.98;101122.22;5077313;28;20075;-74
2020/12/02 05:18:13;;;;;;;10.50;3.20;;;;;;;2.23;94.11;101123.28;5074691;28;20033;-75
2020/12/02 05:20:39;;;;;;;9.55;2.88;;;;;;;2.22;94.07;101118.03;5081403;28;20033;-74
2020/12/02 05:23:17;;;;;;;10.75;2.70;;;;;;;2.21;94.05;101121.84;5074103;28;20519;-74
2020/12/02 05:25:43;;;;;;;10.77;3.20;;;;;;;2.19;94.01;101118.47;5065104;28;20052;-75
2020/12/02 05:28:11;;;;;;;6.68;2.83;;;;;;;2.20;94.04;101117.41;5072231;28;20095;-75
2020/12/02 05:30:37;;;;;;;6.93;2.67;;;;;;;2.20;93.98;101115.53;5073200;28;20115;-74
2020/12/02 05:33:12;;;;;;;6.05;2.80;;;;;;;2.19;94.17;101113.00;5059400;28;20100;-74
2020/12/02 05:35:51;;;;;;;11.93;3.35;;;;;;;2.20;93.95;101117.41;5076791;28;20036;-75
2020/12/02 05:38:32;;;;;;;6.85;2.70;;;;;;;2.20;94.14;101114.66;5072547;28;20029;-74
2020/12/02 05:40:58;;;;;;;7.57;2.88;;;;;;;2.19;94.24;101108.34;5071336;28;20048;-75
2020/12/02 05:43:33;;;;;;;9.05;2.67;;;;;;;2.19;94.19;101104.78;5054554;28;20032;-74
2020/12/02 05:45:59;;;;;;;10.52;2.97;;;;;;;2.21;94.34;101105.41;5073664;28;20408;-75
2020/12/02 05:48:30;;;;;;;6.63;2.88;;;;;;;2.22;94.20;101104.31;5071660;28;20086;-74
2020/12/02 05:50:55;;;;;;;10.77;2.92;;;;;;;2.21;94.42;101099.91;5052672;28;20040;-74
2020/12/02 05:53:48;;;;;;;9.43;3.42;;;;;;;2.22;94.24;101099.66;5072949;28;20036;-74
2020/12/02 05:56:14;;;;;;;10.85;3.47;;;;;;;2.23;94.30;101092.31;5058237;28;20032;-75
2020/12/02 05:58:40;;;;;;;11.45;3.13;;;;;;;2.24;94.25;101088.50;5072421;28;20074;-75
2020/12/02 06:01:10;;;;;;;7.00;2.85;;;;;;;2.25;94.26;101081.94;5079295;28;20080;-74
2020/12/02 06:03:35;;;;;;;9.10;3.13;;;;;;;2.27;94.30;101087.22;5080758;28;20035;-74
2020/12/02 06:06:05;;;;;;;9.80;2.85;;;;;;;2.29;94.20;101085.09;5063917;28;20028;-74
2020/12/02 06:08:37;;;;;;;11.50;3.45;;;;;;;2.28;94.33;101077.91;5078381;28;20395;-74
2020/12/02 06:11:15;;;;;;;;;;;;;;;2.29;94.26;101082.34;5061279;28;20039;-74
2020/12/02 06:13:43;;;;;;;9.68;3.67;;;;;;;2.30;94.31;101076.63;5077398;28;19912;-75
2020/12/02 06:16:18;;;;;;;7.47;2.80;;;;;;;2.30;94.18;101079.38;5084198;28;20033;-74
2020/12/02 06:18:43;;;;;;;8.68;3.00;;;;;;;2.31;94.37;101069.25;5087890;28;20455;-74
2020/12/02 06:21:47;;;;;;;7.38;2.88;;;;;;;2.32;94.36;101080.00;5076815;28;20037;-74
2020/12/02 06:24:20;;;;;;;8.65;2.90;;;;;;;2.33;94.27;101073.44;5079898;28;20037;-75
2020/12/02 06:26:46;;;;;;;9.45;3.20;;;;;;;2.34;94.24;101064.16;5080785;28;20031;-74
2020/12/02 06:29:32;;;;;;;8.40;3.15;;;;;;;2.35;94.16;101068.56;5083806;28;20040;-74
2020/12/02 06:32:09;;;;;;;12.52;3.20;;;;;;;2.36;94.51;101066.66;5086751;28;20089;-74
2020/12/02 06:34:35;;;;;;;7.45;2.70;;;;;;;2.36;94.30;101064.75;5072994;28;20024;-75
2020/12/02 06:37:09;;;;;;;8.43;2.90;;;;;;;2.37;94.33;101060.97;5081180;28;20066;-75
2020/12/02 06:39:38;;;;;;;11.05;2.60;;;;;;;2.37;94.30;101063.72;5077864;28;20032;-75
2020/12/02 06:42:25;;;;;;;6.68;2.72;;;;;;;2.39;94.36;101057.97;5075731;28;20035;-75
2020/12/02 06:45:07;;;;;;;7.15;2.40;;;;;;;2.39;94.17;101061.56;5084415;28;20400;-74
2020/12/02 06:47:35;;;;;;;9.33;2.70;;;;;;;2.40;94.13;101054.19;5079219;28;20024;-75
2020/12/02 06:50:06;;;;;;;7.75;2.70;;;;;;;2.41;94.16;101062.19;5039225;28;20439;-74
2020/12/02 06:52:35;;;;;;;5.57;2.53;;;;;;;2.39;94.25;101064.28;5077777;28;20032;-74
2020/12/02 06:55:12;;;;;;;8.65;2.83;;;;;;;2.41;94.26;101061.34;5065234;28;20028;-75
2020/12/02 06:57:37;;;;;;;7.22;2.75;;;;;;;2.41;94.25;101061.34;5069649;28;20396;-75
2020/12/02 07:00:06;;;;;;;9.55;2.92;;;;;;;2.41;93.96;101066.81;5060709;28;20032;-75
2020/12/02 07:02:58;;;;;;;9.75;3.30;;;;;;;2.41;94.24;101064.91;5077566;28;20045;-75
2020/12/02 07:05:39;;;;;;;7.90;3.15;;;;;;;2.41;94.17;101062.19;5066462;28;20063;-75
2020/12/02 07:08:17;;;;;;;8.25;3.08;;;;;;;2.41;94.30;101064.91;5067161;28;20044;-75
2020/12/02 07:10:56;;;;;;;10.10;2.80;;;;;;;2.43;94.18;101067.44;5076411;28;20028;-77
2020/12/02 07:13:22;;;;;;;9.05;3.33;;;;;;;2.42;94.20;101061.13;5066848;28;20551;-73
2020/12/02 07:15:47;;;;;;;13.25;3.00;;;;;;;2.42;94.19;101060.28;5056593;28;20079;-77
2020/12/02 07:18:15;;;;;;;10.80;3.30;;;;;;;2.43;94.36;101065.53;5043637;28;20028;-77
2020/12/02 07:20:46;;;;;;;14.55;3.75;;;;;;;2.44;94.21;101060.88;5051572;28;20027;-76
2020/12/02 07:23:11;;;;;;;14.20;3.20;;;;;;;2.43;94.36;101064.72;5045353;28;20025;-77
2020/12/02 07:25:37;;;;;;;10.00;3.22;;;;;;;2.43;94.27;101056.47;5054232;28;20033;-76
2020/12/02 07:28:02;;;;;;;10.57;3.00;;;;;;;2.43;94.12;101049.09;5059814;28;20047;-75
2020/12/02 07:30:31;;;;;;;13.90;3.40;;;;;;;2.42;94.27;101058.38;5087600;28;20032;-76
2020/12/02 07:33:07;;;;;;;9.75;3.45;;;;;;;2.43;94.25;101065.53;5077781;28;20033;-76
2020/12/02 07:35:33;;;;;;;11.75;3.30;;;;;;;2.42;94.29;101058.38;5067070;28;20024;-76
2020/12/02 07:38:08;;;;;;;7.53;3.05;;;;;;;2.41;94.26;101067.66;5057752;28;20033;-76
2020/12/02 07:40:37;;;;;;;11.73;4.47;;;;;;;2.42;94.26;101063.00;5082146;28;20090;-76
2020/12/02 07:43:03;;;;;;;12.57;4.57;;;;;;;2.41;94.30;101059.44;5039496;28;20051;-76
2020/12/02 07:45:31;;;;;;;16.73;5.28;;;;;;;2.40;94.28;101062.41;5056833;28;20036;-76
2020/12/02 07:48:16;;;;;;;15.00;5.13;;;;;;;2.39;94.24;101056.06;5051069;28;20035;-77
2020/12/02 07:50:46;;;;;;;13.90;4.50;;;;;;;2.39;94.39;101068.94;5042657;28;20021;-76
2020/12/02 07:53:42;;;;;;;11.45;4.07;;;;;;;2.37;94.34;101074.69;5059706;28;20033;-76
2020/12/02 07:56:13;;;;;;;11.57;4.05;;;;;;;2.38;94.43;101067.28;5083335;28;20111;-76
2020/12/02 07:58:41;;;;;;;7.15;3.30;;;;;;;2.39;94.52;101069.78;5060015;28;20029;-77
2020/12/02 08:01:20;;;;;;;11.57;4.13;;;;;;;2.39;94.41;101069.78;5062738;28;20441;-76
2020/12/02 08:03:46;;;;;;;13.23;3.90;;;;;;;2.40;94.49;101070.66;5077928;28;20078;-76
2020/12/02 08:06:29;;;;;;;10.73;3.30;;;;;;;2.41;94.57;101073.13;5067489;28;20024;-76
2020/12/02 08:08:55;;;;;;;13.75;3.58;;;;;;;2.43;94.46;101078.41;5060241;28;20029;-76
2020/12/02 08:11:20;;;;;;;10.38;3.70;;;;;;;2.44;94.42;101072.69;5082892;28;20436;-77
2020/12/02 08:14:04;;;;;;;10.18;4.32;;;;;;;2.50;94.80;101078.34;5059554;28;20035;-76
2020/12/02 08:16:42;;;;;;;9.95;3.83;;;;;;;2.55;94.52;101078.50;5074303;28;20055;-77
2020/12/02 08:19:10;;;;;;;10.43;3.75;;;;;;;2.60;94.64;101081.41;5057316;28;20423;-76
2020/12/02 08:21:36;;;;;;;8.15;4.13;;;;;;;2.66;94.87;101085.97;5050907;28;20478;-76
2020/12/02 08:24:30;;;;;;;7.18;3.53;;;;;;;2.76;94.85;101093.66;5040307;28;20056;-76
2020/12/02 08:26:55;;;;;;;9.27;3.95;;;;;;;2.85;95.06;101093.13;5067863;28;20103;-77
2020/12/02 08:29:24;;;;;;;10.52;4.05;;;;;;;2.93;94.81;101094.75;5042255;28;20040;-77
2020/12/02 08:32:02;;;;;;;11.35;4.63;;;;;;;3.05;94.80;101089.31;5049027;28;20040;-76
2020/12/02 08:34:31;;;;;;;14.82;4.57;;;;;;;3.17;94.91;101094.88;5057435;28;20067;-77
2020/12/02 08:37:19;;;;;;;12.23;4.70;;;;;;;3.29;95.19;101091.13;5061732;28;20062;-77
2020/12/02 08:39:46;;;;;;;10.40;4.68;;;;;;;3.42;94.57;101089.25;5072770;28;20476;-77
2020/12/02 08:42:13;;;;;;;15.38;6.10;;;;;;;3.54;95.05;101085.50;5025674;28;20093;-77
2020/12/02 08:44:39;;;;;;;17.13;5.22;;;;;;;3.68;94.60;101075.16;5032899;28;20037;-77
2020/12/02 08:47:09;;;;;;;15.77;6.95;;;;;;;3.83;95.22;101082.09;5034672;28;20094;-77
2020/12/02 08:49:35;;;;;;;14.48;5.70;;;;;;;3.94;94.72;101079.38;5081782;28;20385;-77
2020/12/02 08:52:01;;;;;;;18.25;6.60;;;;;;;4.06;94.90;101082.13;5051679;28;20035;-77
2020/12/02 08:54:27;;;;;;;18.35;7.10;;;;;;;4.19;94.80;101079.16;5033602;28;20039;-77
2020/12/02 08:57:02;;;;;;;15.27;7.38;;;;;;;4.30;94.58;101079.44;5055032;28;20063;-77
2020/12/02 08:59:28;;;;;;;13.90;6.22;;;;;;;4.40;94.27;101080.50;5069183;28;20103;-77
2020/12/02 09:02:10;;;;;;;12.30;6.70;;;;;;;4.48;93.91;101082.91;5073422;28;20104;-78
2020/12/02 09:04:36;;;;;;;20.60;7.10;;;;;;;4.58;93.83;101087.78;5032485;28;20021;-76
2020/12/02 09:07:02;;;;;;;16.05;7.00;;;;;;;4.64;93.70;101075.81;5050491;28;20115;-77
2020/12/02 09:09:27;;;;;;;12.60;6.32;;;;;;;4.72;93.88;101082.88;5049984;28;20029;-77
2020/12/02 09:11:54;;;;;;;14.07;5.72;;;;;;;4.77;93.29;101068.41;5056993;28;20511;-77
2020/12/02 09:14:19;;;;;;;19.85;8.05;;;;;;;4.82;93.81;101066.59;5077540;28;20032;-76
2020/12/02 09:16:45;;;;;;;14.35;5.80;;;;;;;4.86;93.70;101061.44;5042052;28;20034;-77
2020/12/02 09:19:12;;;;;;;15.43;6.60;;;;;;;4.91;93.40;101073.38;5039149;28;20035;-77
2020/12/02 09:21:37;;;;;;;14.05;6.45;;;;;;;4.95;93.45;101067.38;5047379;28;20028;-77
2020/12/02 09:24:03;;;;;;;18.50;6.97;;;;;;;4.98;93.50;101062.22;5059444;28;20511;-77
2020/12/02 09:26:30;;;;;;;17.17;7.65;;;;;;;5.02;93.49;101063.44;5062557;28;20373;-77
2020/12/02 09:28:57;;;;;;;17.25;7.47;;;;;;;5.03;93.51;101073.34;5048036;28;20056;-77
2020/12/02 09:31:23;;;;;;;16.80;7.70;;;;;;;5.05;93.81;101068.44;5041912;28;20090;-77
2020/12/02 09:33:49;;;;;;;17.15;7.43;;;;;;;5.08;93.44;101067.94;5042564;28;20112;-77
2020/12/02 09:36:15;;;;;;;17.80;9.20;;;;;;;5.11;93.69;101070.22;5054610;28;20032;-77
2020/12/02 09:38:41;;;;;;;20.33;8.02;;;;;;;5.14;93.66;101068.91;5032303;28;20405;-77
2020/12/02 09:41:33;;;;;;;15.05;7.82;;;;;;;5.14;93.47;101063.38;5072627;28;20029;-77
2020/12/02 09:44:36;;;;;;;18.08;7.50;;;;;;;5.15;93.37;101068.66;5043476;28;20083;-77
2020/12/02 09:47:03;;;;;;;15.00;7.22;;;;;;;5.18;93.37;101064.56;5071950;28;20021;-77
2020/12/02 09:49:31;;;;;;;18.60;6.50;;;;;;;5.20;93.76;101069.84;5057768;28;20503;-77
2020/12/02 09:52:09;;;;;;;18.65;8.20;;;;;;;5.21;93.48;101064.09;5066435;28;20044;-77
2020/12/02 09:54:45;;;;;;;17.88;6.60;;;;;;;5.24;93.30;101065.53;5080401;28;20035;-77
2020/12/02 09:57:19;;;;;;;15.02;6.68;;;;;;;5.27;93.18;101062.28;5058462;28;20027;-77
2020/12/02 09:59:45;;;;;;;16.02;6.68;;;;;;;5.30;93.21;101061.78;5044245;28;20028;-76
2020/12/02 10:02:35;;;;;;;15.00;5.72;;;;;;;5.32;93.23;101063.22;5061988;28;20033;-77
2020/12/02 10:05:17;;;;;;;15.32;6.25;;;;;;;5.36;93.52;101047.03;5048474;28;20037;-77
2020/12/02 10:08:05;;;;;;;10.90;5.80;;;;;;;5.40;93.45;101045.44;5081264;28;20036;-77
2020/12/02 10:10:49;;;;;;;16.70;5.75;;;;;;;5.42;93.50;101043.28;5074339;28;20492;-77
2020/12/02 10:13:44;;;;;;;13.63;5.25;;;;;;;5.44;93.60;101041.13;5058625;28;20508;-77
2020/12/02 10:16:25;;;;;;;18.55;5.88;;;;;;;5.48;93.49;101042.28;5060387;28;20055;-77
2020/12/02 10:19:01;;;;;;;13.05;5.78;;;;;;;5.51;93.55;101035.44;5062314;28;20032;-77
2020/12/02 10:21:56;;;;;;;22.30;6.90;;;;;;;5.54;93.64;101035.81;5076629;28;20038;-76
2020/12/02 10:24:40;;;;;;;21.88;8.32;;;;;;;5.56;93.54;101041.88;5059820;28;20036;-77
2020/12/02 10:27:19;;;;;;;26.00;8.10;;;;;;;5.58;93.38;101039.72;5074343;28;20039;-77
2020/12/02 10:30:13;;;;;;;16.83;7.07;;;;;;;5.60;93.21;101034.81;5052514;28;20056;-77
2020/12/02 10:32:51;;;;;;;41.60;20.17;;;;;;;5.63;92.86;101038.13;5047867;28;20090;-77
2020/12/02 10:35:17;;;;;;;26.15;13.27;;;;;;;5.64;92.95;101031.53;5077000;28;20032;-77
2020/12/02 10:37:43;;;;;;;20.35;8.95;;;;;;;5.66;92.87;101015.63;5067146;28;20082;-77
2020/12/02 10:40:09;;;;;;;26.25;10.73;;;;;;;5.68;92.90;101013.41;5080185;28;20464;-76
2020/12/02 10:42:38;;;;;;;26.23;10.88;;;;;;;5.70;92.83;101012.09;5043150;28;20483;-76
2020/12/02 10:45:12;;;;;;;20.58;10.75;;;;;;;5.73;92.79;101008.81;5076475;28;20033;-77
2020/12/02 10:48:02;;;;;;;15.98;7.38;;;;;;;5.75;92.23;101003.09;5070332;28;20044;-78
2020/12/02 10:50:31;;;;;;;18.63;7.43;;;;;;;5.77;92.06;101003.69;5082261;28;20033;-77
2020/12/02 10:52:57;;;;;;;16.27;6.82;;;;;;;5.80;91.58;100992.16;5069973;28;20037;-77
2020/12/02 10:55:30;;;;;;;18.02;6.95;;;;;;;5.80;91.13;100987.47;5061020;28;20023;-77
2020/12/02 10:57:57;;;;;;;17.40;6.38;;;;;;;5.85;91.59;100983.97;5064912;28;20067;-76
2020/12/02 11:00:23;;;;;;;12.73;6.07;;;;;;;5.88;91.28;100980.69;5045356;28;20085;-77
2020/12/02 11:03:01;;;;;;;17.75;6.57;;;;;;;5.90;91.08;100970.22;5059399;28;20108;-77
2020/12/02 11:05:27;;;;;;;19.50;7.10;;;;;;;5.94;91.10;100968.69;5039888;28;20083;-77
2020/12/02 11:08:09;;;;;;;18.55;7.07;;;;;;;5.98;91.20;100963.50;5061722;28;20028;-77
2020/12/02 11:11:19;;;;;;;18.27;7.17;;;;;;;6.01;90.58;100941.75;5054679;28;20456;-77
2020/12/02 11:13:58;;;;;;;20.60;8.02;;;;;;;6.06;90.83;100940.19;5062249;28;20427;-76
2020/12/02 11:16:28;;;;;;;18.40;7.43;;;;;;;6.08;90.59;100930.56;5077671;28;20032;-77
2020/12/02 11:19:18;;;;;;;14.43;6.38;;;;;;;6.12;90.36;100928.97;5040590;28;20033;-77
2020/12/02 11:21:59;;;;;;;15.70;7.38;;;;;;;6.15;90.98;100927.63;5058935;28;20060;-76
2020/12/02 11:24:46;;;;;;;19.35;7.88;;;;;;;6.19;91.02;100926.03;5075344;28;20061;-77
2020/12/02 11:27:12;;;;;;;15.75;7.13;;;;;;;6.21;90.44;100912.81;5077089;28;20027;-77
2020/12/02 11:29:37;;;;;;;18.65;6.47;;;;;;;6.25;91.49;100916.75;5051313;28;20064;-76
2020/12/02 11:32:54;;;;;;;13.45;5.85;;;;;;;6.26;91.24;100910.94;5059162;28;20112;-77
2020/12/02 11:35:47;;;;;;;16.50;6.85;;;;;;;6.30;92.09;100911.28;4996021;28;20450;-76
2020/12/02 11:38:16;;;;;;;;;;;;;;;6.32;92.00;100903.56;4986158;28;20030;-77
2020/12/02 11:41:03;;;;;;;17.63;6.80;;;;;;;6.33;91.67;100897.00;5048939;28;20284;-77
2020/12/02 11:43:57;;;;;;;24.65;7.40;;;;;;;6.37;91.79;100902.81;5074501;28;20086;-76
2020/12/02 11:46:23;;;;;;;17.13;6.50;;;;;;;6.39;91.75;100903.41;5055671;28;20044;-77